Date,TemperatureHighF,TemperatureAvgF,TemperatureLowF,DewpointHighF,DewpointAvgF,DewpointLowF,HumidityHigh,HumidityAvg,HumidityLow,PressureMaxIn,PressureMinIn,WindSpeedMaxMPH,WindSpeedAvgMPH,GustSpeedMaxMPH,PrecipitationSumIn
2013-1-1,30.8,22.6,11.4,23.7,14.3,7.5,86,71,56,30.19,30.05,12,2,13,0.00
2013-1-2,24.9,17.9,8.5,18.4,13.1,5.8,91,82,74,30.27,30.13,10,1,10,0.00
2013-1-3,29.0,18.1,14.5,25.1,11.8,7.7,85,76,70,30.23,30.16,11,3,11,0.00
2013-1-4,28.9,25.6,20.8,24.7,19.7,15.9,84,78,70,30.24,30.10,23,7,23,0.01
2013-1-5,33.3,22.4,16.0,31.1,19.4,13.5,93,88,77,30.35,30.09,11,2,12,0.00
2013-1-6,36.7,34.4,32.7,32.3,30.4,27.5,91,85,79,30.29,29.96,18,5,18,0.04
2013-1-7,36.9,32.2,28.3,27.7,25.6,23.8,84,77,66,30.43,30.21,19,3,21,0.00
2013-1-8,38.1,30.4,21.7,29.6,25.5,19.2,92,82,68,30.31,30.21,10,2,11,0.00
2013-1-9,46.4,39.3,30.1,35.2,30.3,24.4,91,71,49,30.49,30.07,20,5,20,0.00
2013-1-10,39.0,32.7,22.6,33.0,28.0,20.5,94,83,71,30.62,30.23,12,2,12,0.01
2013-1-11,58.6,49.8,35.9,52.6,46.3,31.8,96,88,78,30.23,29.80,18,4,18,0.98
2013-1-12,60.1,50.5,43.3,53.1,47.5,41.7,96,89,77,29.96,29.84,13,2,14,0.02
2013-1-13,51.0,40.8,33.3,49.9,39.2,30.4,96,94,89,30.06,29.73,23,4,23,1.23
2013-1-14,33.3,25.9,17.7,30.4,19.8,14.6,90,77,67,30.48,30.06,20,5,20,0.00
2013-1-15,30.2,22.6,13.9,22.7,18.1,11.9,93,83,66,30.50,30.18,6,1,6,0.00
2013-1-16,37.4,29.5,21.4,27.3,22.4,18.8,92,76,52,30.18,29.87,18,3,19,0.00
2013-1-17,38.4,31.9,20.5,29.3,22.4,7.2,87,68,49,30.35,30.00,20,5,21,0.00
2013-1-18,36.8,27.3,17.8,24.6,16.4,8.0,76,63,55,30.50,30.05,23,4,23,0.00
2013-1-19,47.9,42.4,36.7,35.7,30.7,24.5,76,63,56,30.05,29.62,27,8,27,0.00
2013-1-20,43.2,25.4,18.3,35.5,13.0,4.5,76,59,49,30.22,29.60,42,9,42,0.00
2013-1-21,20.0,14.9,5.5,14.9,7.8,-0.7,88,73,61,30.19,30.00,18,5,18,0.00
2013-1-22,10.6,5.4,-1.0,4.3,-2.8,-8.5,81,68,54,30.37,30.18,18,5,18,0.00
2013-1-23,17.5,11.1,4.8,12.3,4.6,0.1,88,75,63,30.36,30.15,15,2,15,0.00
2013-1-24,21.0,16.5,12.5,12.0,6.6,1.8,88,66,45,30.64,30.16,11,2,12,0.00
2013-1-25,20.4,17.4,14.5,17.0,12.0,6.7,90,79,60,30.56,30.08,9,1,9,0.00
2013-1-26,26.6,21.9,17.1,18.3,15.0,12.9,91,75,58,30.48,30.11,11,1,11,0.00
2013-1-27,29.7,20.7,11.0,27.1,16.2,8.4,93,83,66,30.54,30.19,14,2,14,0.00
2013-1-28,47.1,41.3,29.8,46.0,39.8,27.0,97,94,89,30.22,29.89,14,4,14,0.36
2013-1-29,57.0,54.2,46.2,55.2,52.7,45.4,98,95,91,29.85,29.51,17,3,17,0.48
2013-1-30,58.4,52.3,37.4,55.2,49.6,28.9,97,90,82,29.51,29.12,28,6,30,0.43
2013-1-31,34.4,25.3,16.6,28.9,18.1,11.6,86,74,65,29.93,29.26,35,13,38,0.00
2013-2-1,16.5,16.0,13.1,12.6,11.6,5.8,86,82,72,30.32,29.93,15,6,15,0.00
2013-2-2,18.5,18.5,18.4,15.6,15.5,15.4,88,88,88,30.06,30.06,4,2,4,0.00
2013-2-3,18.4,14.9,10.9,11.9,9.0,6.2,82,77,67,30.08,29.94,11,4,11,0.00
2013-2-4,25.3,23.8,22.7,20.3,19.1,18.5,84,82,80,30.03,30.00,3,1,3,0.00
2013-2-5,27.6,25.6,20.8,25.2,22.7,16.7,91,88,83,30.00,29.98,7,3,7,0.00
2013-2-6,31.2,29.0,22.6,25.4,17.8,15.2,91,63,54,30.33,29.99,9,3,9,0.05
2013-2-7,37.7,34.4,29.7,28.4,26.8,24.3,80,74,69,30.24,30.09,11,5,11,0.02
2013-2-9,27.9,24.5,23.4,21.5,20.9,19.3,92,86,70,30.49,30.34,4,2,4,0.00
2013-2-10,42.1,37.4,23.5,38.4,33.8,21.5,92,87,80,30.35,29.73,11,4,11,0.06
2013-2-11,46.5,41.0,35.8,42.3,35.7,26.6,94,82,68,29.73,29.60,32,8,32,0.00
2013-2-12,33.7,31.7,29.3,25.8,24.5,22.4,77,74,69,30.09,29.94,20,6,20,0.00
2013-2-13,30.4,28.0,26.4,27.9,23.2,20.9,91,82,75,29.96,29.80,8,1,8,0.00
2013-2-14,39.4,32.6,26.3,35.4,29.6,24.3,93,89,75,29.88,29.73,20,2,20,0.03
2013-2-15,35.5,31.1,27.5,29.4,19.7,13.9,86,63,51,30.14,29.88,20,6,21,0.00
2013-2-16,27.1,25.0,23.7,21.3,18.0,13.7,88,75,59,30.14,30.01,13,3,14,0.00
2013-2-17,22.3,17.9,10.4,8.1,7.3,6.3,85,64,51,30.27,30.22,15,4,15,0.00
2013-2-18,39.7,39.5,39.3,30.9,30.5,30.0,71,70,69,29.91,29.89,11,5,11,0.00
2013-2-21,22.1,22.1,22.1,16.9,16.9,16.8,80,80,80,30.35,30.35,6,2,6,0.00
2013-3-9,38.9,38.5,38.1,30.7,30.3,29.8,73,72,72,30.38,30.36,13,5,13,0.00
2013-3-11,51.4,51.4,51.4,47.0,47.0,47.0,85,85,85,29.73,29.72,13,3,13,0.01
2013-3-12,34.4,34.3,34.3,26.9,26.8,26.6,74,74,73,29.93,29.93,11,5,11,0.00
2013-3-13,28.5,27.9,27.1,18.5,17.7,17.0,67,65,63,30.04,30.01,22,9,24,0.00
2013-3-24,35.7,35.7,35.7,25.1,25.1,25.1,65,65,65,29.81,29.81,6,6,6,0.00
2013-4-13,42.6,42.6,42.6,33.5,33.5,33.5,70,70,70,29.87,29.87,4,4,5,0.00
2013-4-16,60.4,59.5,59.0,49.2,48.5,46.9,70,67,63,30.10,30.08,14,7,16,0.43
2013-4-23,53.8,53.8,53.8,38.5,38.5,38.0,56,56,56,30.11,30.11,9,8,9,0.00
2013-4-30,65.3,65.0,64.8,56.7,56.5,56.0,75,74,73,30.10,30.09,8,3,8,0.00
2013-5-19,74.8,74.0,73.5,63.5,63.0,62.7,69,69,68,30.00,30.00,5,2,7,0.00
2013-8-15,63.7,63.6,63.6,55.5,55.5,55.5,75,75,75,30.19,30.19,2,0,2,0.00
2013-9-14,59.3,59.3,59.3,49.9,49.9,49.9,71,71,71,30.11,30.11,0,0,0,0.00
2013-10-31,59.3,59.3,59.3,58.2,58.2,58.2,96,96,96,29.50,29.50,9,9,9,1.22
2013-11-4,45.3,45.2,45.2,35.4,35.3,35.2,68,68,68,30.39,30.38,3,1,3,0.00
2013-11-27,26.1,26.1,26.1,13.0,13.0,13.0,57,57,57,30.06,30.06,8,7,8,0.00